Time;durP1;ratioP1;P1;durP2;ratioP2;P2;SDS_P1;SDS_P2;PMS_P1;PMS_P2;Temp;Humidity;BMP_temperature;BMP_pressure;BME280_temperature;BME280_humidity;BME280_pressure;Samples;Min_cycle;Max_cycle;Signal;HPM_P1;HPM_P2
2022/06/02 00:00:02;;;;;;;18.77;15.80;;;21.80;91.20;;;;;;5084609;28;20247;-71
2022/06/02 00:03:06;;;;;;;22.03;15.73;;;21.70;91.30;;;;;;5078146;28;20211;-70
2022/06/02 00:05:51;;;;;;;25.73;17.87;;;21.70;91.60;;;;;;5086800;28;20238;-71
2022/06/02 00:08:35;;;;;;;25.13;16.67;;;21.70;91.40;;;;;;5090982;28;20206;-71
2022/06/02 00:11:36;;;;;;;19.43;16.33;;;21.70;91.40;;;;;;5088067;28;20213;-71
2022/06/02 00:14:14;;;;;;;25.60;15.73;;;21.70;91.50;;;;;;5087007;28;20209;-71
2022/06/02 00:17:08;;;;;;;17.53;15.40;;;21.60;91.30;;;;;;5073098;28;20531;-71
2022/06/02 00:19:39;;;;;;;18.20;15.13;;;21.60;91.20;;;;;;5077365;28;20236;-71
2022/06/02 00:22:22;;;;;;;20.70;15.27;;;21.60;91.10;;;;;;5082469;28;20197;-71
2022/06/02 00:25:12;;;;;;;22.70;16.53;;;21.50;91.20;;;;;;5089892;28;20232;-71
2022/06/02 00:28:18;;;;;;;30.67;16.20;;;21.50;91.20;;;;;;5087253;28;20193;-71
2022/06/02 00:31:12;;;;;;;22.03;15.10;;;21.50;91.30;;;;;;5067660;28;20640;-72
2022/06/02 00:34:13;;;;;;;22.47;16.03;;;21.50;91.30;;;;;;5058664;28;20628;-71
2022/06/02 00:36:41;;;;;;;21.03;16.20;;;21.50;91.70;;;;;;5045727;28;20278;-72
2022/06/02 00:39:08;;;;;;;22.13;16.53;;;21.40;91.40;;;;;;5083887;28;20204;-71
2022/06/02 00:41:53;;;;;;;28.43;16.87;;;21.40;91.40;;;;;;5075805;28;20262;-71
2022/06/02 00:44:20;;;;;;;22.53;16.10;;;21.40;91.50;;;;;;5087109;28;20674;-71
2022/06/02 00:46:53;;;;;;;25.53;16.60;;;21.50;91.50;;;;;;5075391;28;20542;-71
2022/06/02 00:50:00;;;;;;;19.37;15.13;;;21.40;91.80;;;;;;5075367;28;20641;-71
2022/06/02 00:52:32;;;;;;;27.53;16.77;;;21.40;91.50;;;;;;5081567;28;20202;-71
2022/06/02 00:58:27;;;;;;;23.40;17.20;;;21.40;91.60;;;;;;5085670;28;20242;-71
2022/06/02 01:01:12;;;;;;;19.70;16.97;;;21.40;91.70;;;;;;5062832;28;20684;-71
2022/06/02 01:03:46;;;;;;;18.40;16.27;;;21.40;91.80;;;;;;5075490;28;20215;-71
2022/06/02 01:06:23;;;;;;;25.47;17.87;;;21.40;91.80;;;;;;5084543;28;20295;-71
2022/06/02 01:08:56;;;;;;;26.30;17.27;;;21.30;91.70;;;;;;5069839;28;20562;-71
2022/06/02 01:11:48;;;;;;;20.67;15.10;;;21.30;92.00;;;;;;5080578;28;20270;-71
2022/06/02 01:14:54;;;;;;;18.97;15.67;;;21.30;91.80;;;;;;5063592;28;20208;-71
2022/06/02 01:18:03;;;;;;;18.53;15.00;;;21.20;91.80;;;;;;4983284;28;20208;-71
2022/06/02 01:20:37;;;;;;;15.77;14.17;;;21.20;91.80;;;;;;5087347;28;20205;-71
2022/06/02 01:23:17;;;;;;;20.23;17.00;;;21.20;91.70;;;;;;5084625;28;20213;-71
2022/06/02 01:26:08;;;;;;;20.93;16.73;;;21.20;91.80;;;;;;5067418;28;20200;-72
2022/06/02 01:28:50;;;;;;;27.10;17.50;;;21.20;91.80;;;;;;5080379;28;20256;-71
2022/06/02 01:31:36;;;;;;;21.37;17.67;;;21.20;91.80;;;;;;5086101;28;20224;-71
2022/06/02 01:34:12;;;;;;;27.50;18.90;;;21.10;91.80;;;;;;5046831;28;20215;-71
2022/06/02 01:36:49;;;;;;;23.90;19.73;;;21.10;91.90;;;;;;5089752;28;20287;-71
2022/06/02 01:39:34;;;;;;;25.23;19.20;;;21.10;91.90;;;;;;5074546;28;20201;-71
2022/06/02 01:42:22;;;;;;;24.37;20.13;;;21.10;92.00;;;;;;5090078;28;20644;-71
2022/06/02 01:45:01;;;;;;;29.90;21.90;;;21.10;92.00;;;;;;5084973;28;20228;-71
2022/06/02 01:47:35;;;;;;;27.63;21.17;;;21.10;92.10;;;;;;5080884;28;20549;-71
2022/06/02 01:50:28;;;;;;;33.10;20.53;;;21.10;92.20;;;;;;5082816;28;20543;-71
2022/06/02 01:53:37;;;;;;;30.67;22.37;;;21.00;92.20;;;;;;5073315;28;20540;-71
2022/06/02 01:56:29;;;;;;;24.43;19.43;;;21.00;92.20;;;;;;5001497;28;20715;-71
2022/06/02 01:59:18;;;;;;;25.60;21.47;;;21.00;92.20;;;;;;5057610;28;20292;-71
2022/06/02 02:01:52;;;;;;;25.40;20.73;;;21.00;92.20;;;;;;5067712;28;20210;-71
2022/06/02 02:04:49;;;;;;;22.10;19.37;;;20.90;92.20;;;;;;5055133;28;20245;-71
2022/06/02 02:07:54;;;;;;;21.77;19.40;;;20.90;92.20;;;;;;5073049;28;20197;-71
2022/06/02 02:10:46;;;;;;;24.27;20.03;;;20.90;92.20;;;;;;5051182;28;20200;-71
2022/06/02 02:13:37;;;;;;;34.17;20.07;;;20.90;92.30;;;;;;5066653;28;20208;-71
2022/06/02 02:16:10;;;;;;;26.67;19.53;;;20.90;92.20;;;;;;5053644;28;20209;-71
2022/06/02 02:18:56;;;;;;;22.83;18.67;;;20.90;92.20;;;;;;5075889;28;20208;-71
2022/06/02 02:21:48;;;;;;;21.13;18.30;;;20.80;92.50;;;;;;5070557;28;20206;-71
2022/06/02 02:24:32;;;;;;;25.13;19.47;;;20.80;92.00;;;;;;5057284;28;20226;-71
2022/06/02 02:27:03;;;;;;;25.80;20.40;;;20.80;92.00;;;;;;5055988;28;20206;-71
2022/06/02 02:29:42;;;;;;;21.67;18.93;;;20.80;92.00;;;;;;5067974;28;20193;-71
2022/06/02 02:32:28;;;;;;;22.47;20.07;;;20.80;92.10;;;;;;5070314;28;20209;-71
2022/06/02 02:35:29;;;;;;;24.57;20.13;;;20.70;92.20;;;;;;5065692;28;20220;-71
2022/06/02 02:38:17;;;;;;;28.17;20.33;;;20.70;92.20;;;;;;5051462;28;20213;-70
2022/06/02 02:40:48;;;;;;;22.87;19.83;;;20.70;92.20;;;;;;5053945;28;20217;-70
2022/06/02 02:43:29;;;;;;;27.60;20.00;;;20.70;92.20;;;;;;5049955;28;20210;-71
2022/06/02 02:46:13;;;;;;;33.33;19.83;;;20.60;92.10;;;;;;5057638;28;20235;-70
2022/06/02 02:49:01;;;;;;;24.60;19.60;;;20.60;92.10;;;;;;5064987;28;20213;-70
2022/06/02 02:52:11;;;;;;;20.70;18.50;;;20.60;92.10;;;;;;5057370;28;20238;-71
2022/06/02 02:54:51;;;;;;;19.90;17.77;;;20.60;92.10;;;;;;5068281;28;20259;-71
2022/06/02 02:58:03;;;;;;;22.17;18.57;;;20.60;92.10;;;;;;5089656;28;20713;-70
2022/06/02 03:00:43;;;;;;;21.23;17.93;;;20.60;92.20;;;;;;5074222;28;20242;-70
2022/06/02 03:03:19;;;;;;;20.33;18.17;;;20.60;92.20;;;;;;5085904;28;20216;-71
2022/06/02 03:06:17;;;;;;;22.47;18.40;;;20.60;92.30;;;;;;5089343;28;20271;-71
2022/06/02 03:09:06;;;;;;;26.00;19.23;;;20.50;92.20;;;;;;5083808;28;20215;-71
2022/06/02 03:11:53;;;;;;;28.70;20.10;;;20.60;92.30;;;;;;5082892;28;20207;-71
2022/06/02 03:14:41;;;;;;;27.07;21.47;;;20.60;92.40;;;;;;5078715;28;20217;-71
2022/06/02 03:17:11;;;;;;;28.30;22.63;;;20.50;92.40;;;;;;5083000;28;20204;-71
2022/06/02 03:20:00;;;;;;;25.57;21.43;;;20.50;92.40;;;;;;5080932;28;20210;-72
2022/06/02 03:22:45;;;;;;;25.20;19.20;;;20.50;92.50;;;;;;5089592;28;20213;-71
2022/06/02 03:25:45;;;;;;;23.87;20.17;;;20.40;92.40;;;;;;5058947;28;20315;-71
2022/06/02 03:28:28;;;;;;;20.63;18.57;;;20.40;92.50;;;;;;5081233;28;20213;-71
2022/06/02 03:31:20;;;;;;;22.07;18.87;;;20.40;92.40;;;;;;5074101;28;20200;-71
2022/06/02 03:34:00;;;;;;;25.40;20.63;;;20.40;92.40;;;;;;5083201;28;20199;-71
2022/06/02 03:36:47;;;;;;;26.73;21.20;;;20.40;92.40;;;;;;5065072;28;20208;-71
2022/06/02 03:39:49;;;;;;;29.37;21.27;;;20.40;92.40;;;;;;5084453;28;20220;-71
2022/06/02 03:42:37;;;;;;;26.57;23.10;;;20.40;92.40;;;;;;5086403;28;20206;-71
2022/06/02 03:45:19;;;;;;;27.37;22.23;;;20.40;92.40;;;;;;5083105;28;20311;-71
2022/06/02 03:48:17;;;;;;;29.73;24.63;;;20.40;92.50;;;;;;5077524;28;20201;-71
2022/06/02 03:51:01;;;;;;;29.60;24.90;;;20.40;92.50;;;;;;5082801;28;20208;-71
2022/06/02 03:53:43;;;;;;;32.10;26.80;;;20.40;92.40;;;;;;5088476;28;20204;-71
2022/06/02 03:56:25;;;;;;;30.23;26.93;;;20.40;92.40;;;;;;5074082;28;20248;-71
2022/06/02 03:59:11;;;;;;;32.63;27.23;;;20.40;92.40;;;;;;5088949;28;20222;-71
2022/06/02 04:01:51;;;;;;;34.13;26.47;;;20.40;92.40;;;;;;5086099;28;20642;-71
2022/06/02 04:04:43;;;;;;;34.47;27.73;;;20.40;92.50;;;;;;5088504;28;20215;-71
2022/06/02 04:07:33;;;;;;;33.27;26.70;;;20.40;92.50;;;;;;5083586;28;20204;-71
2022/06/02 04:10:23;;;;;;;31.43;25.47;;;20.40;92.50;;;;;;5087933;28;20298;-71
2022/06/02 04:13:38;;;;;;;32.83;25.97;;;20.40;92.50;;;;;;5082402;28;20657;-70
2022/06/02 04:16:10;;;;;;;31.53;26.70;;;20.40;92.50;;;;;;5082971;28;20245;-70
2022/06/02 04:20:34;;;;;;;29.27;24.47;;;20.40;92.50;;;;;;5087484;28;20299;-71
2022/06/02 04:21:59;;;;;;;32.10;25.17;;;20.50;92.60;;;;;;5084367;28;20208;-71
2022/06/02 04:24:39;;;;;;;31.73;24.27;;;20.50;92.50;;;;;;5087913;28;20317;-71
2022/06/02 04:27:23;;;;;;;28.77;25.30;;;20.60;92.40;;;;;;5059897;28;20208;-71
2022/06/02 04:30:20;;;;;;;27.77;24.37;;;20.60;92.40;;;;;;5085801;28;20646;-71
2022/06/02 04:33:30;;;;;;;28.13;23.93;;;20.60;92.40;;;;;;5081882;28;20235;-71
2022/06/02 04:36:04;;;;;;;23.57;21.13;;;20.70;92.30;;;;;;4996853;28;20214;-71
2022/06/02 04:39:09;;;;;;;27.53;21.30;;;20.80;92.20;;;;;;5048351;28;20207;-71
2022/06/02 04:41:48;;;;;;;29.40;20.57;;;20.80;92.00;;;;;;5067529;28;20661;-71
2022/06/02 04:45:04;;;;;;;28.00;20.37;;;20.90;91.90;;;;;;5082826;28;20215;-71
2022/06/02 04:48:12;;;;;;;27.63;20.37;;;21.00;91.90;;;;;;5058965;28;20536;-71
2022/06/02 04:51:02;;;;;;;19.30;17.23;;;21.10;91.80;;;;;;5057041;28;20220;-71
2022/06/02 04:53:56;;;;;;;17.73;15.57;;;21.20;91.70;;;;;;5086607;28;20282;-71
2022/06/02 04:56:36;;;;;;;17.37;15.53;;;21.30;91.40;;;;;;5083904;28;20246;-71
2022/06/02 04:59:36;;;;;;;19.97;14.03;;;21.30;91.20;;;;;;5076033;28;20206;-72
2022/06/02 05:02:06;;;;;;;16.83;13.17;;;21.50;90.70;;;;;;5045857;28;20214;-71
2022/06/02 05:04:43;;;;;;;23.33;13.97;;;21.60;90.20;;;;;;5089647;28;20568;-71
2022/06/02 05:07:25;;;;;;;17.60;13.80;;;21.70;89.80;;;;;;5064366;28;20212;-71
2022/06/02 05:10:16;;;;;;;17.87;13.40;;;21.80;89.50;;;;;;5085531;28;20652;-71
2022/06/02 05:12:58;;;;;;;16.47;13.57;;;21.90;89.20;;;;;;5075811;28;20201;-71
2022/06/02 05:16:08;;;;;;;17.30;13.30;;;22.00;88.50;;;;;;5084618;28;20209;-70
2022/06/02 05:19:10;;;;;;;17.87;13.20;;;22.10;88.10;;;;;;5088674;28;20717;-70
2022/06/02 05:21:38;;;;;;;13.87;12.40;;;22.30;87.60;;;;;;5079434;28;20200;-70
2022/06/02 05:24:14;;;;;;;15.93;12.97;;;22.50;86.70;;;;;;5076551;28;20209;-73
2022/06/02 05:27:05;;;;;;;17.17;13.20;;;22.70;85.30;;;;;;5073972;28;20296;-73
2022/06/02 05:30:02;;;;;;;12.80;11.50;;;22.90;84.40;;;;;;5084557;28;20230;-74
2022/06/02 05:33:07;;;;;;;13.17;11.17;;;23.00;83.90;;;;;;5040294;28;20220;-74
2022/06/02 05:35:58;;;;;;;16.13;11.80;;;23.10;82.90;;;;;;5067426;28;20205;-74
2022/06/02 05:38:31;;;;;;;16.47;11.33;;;23.30;82.20;;;;;;5088609;28;20212;-74
2022/06/02 05:41:27;;;;;;;14.20;12.00;;;23.30;81.70;;;;;;5085050;28;20217;-74
2022/06/02 05:44:04;;;;;;;13.57;10.57;;;23.50;81.40;;;;;;5083942;28;20206;-74
2022/06/02 05:47:17;;;;;;;12.73;10.03;;;23.50;81.50;;;;;;5088143;28;20235;-74
2022/06/02 05:50:06;;;;;;;13.77;10.80;;;23.60;81.10;;;;;;5080757;28;20229;-74
2022/06/02 05:52:38;;;;;;;16.50;10.30;;;23.70;80.30;;;;;;5076533;28;20292;-74
2022/06/02 05:55:13;;;;;;;13.47;9.40;;;23.80;79.70;;;;;;5086079;28;20250;-74
2022/06/02 05:57:58;;;;;;;11.57;8.77;;;23.90;79.50;;;;;;5087267;28;20204;-74
2022/06/02 06:00:47;;;;;;;14.13;9.80;;;24.00;78.40;;;;;;5084714;28;20258;-73
2022/06/02 06:03:32;;;;;;;11.77;9.50;;;24.10;77.60;;;;;;5060508;28;20226;-73
2022/06/02 06:06:23;;;;;;;13.57;9.67;;;24.20;77.50;;;;;;5069627;28;20243;-73
2022/06/02 06:09:06;;;;;;;10.70;9.20;;;24.40;77.20;;;;;;5082199;28;20266;-73
2022/06/02 06:12:07;;;;;;;14.23;10.70;;;24.50;76.80;;;;;;5062591;28;20210;-73
2022/06/02 06:14:59;;;;;;;12.63;9.57;;;24.60;76.70;;;;;;5066147;28;20610;-73
2022/06/02 06:18:01;;;;;;;13.13;8.97;;;24.80;76.00;;;;;;5090971;28;20204;-73
2022/06/02 06:20:51;;;;;;;12.17;9.33;;;24.90;75.40;;;;;;5064683;28;20979;-73
2022/06/02 06:23:32;;;;;;;15.83;9.83;;;25.00;75.40;;;;;;5078880;28;20194;-73
2022/06/02 06:26:14;;;;;;;15.73;9.97;;;25.20;74.30;;;;;;5076234;28;20308;-74
2022/06/02 06:29:06;;;;;;;11.93;10.13;;;25.30;73.90;;;;;;5074996;28;20276;-74
2022/06/02 06:31:59;;;;;;;12.23;8.90;;;25.40;74.20;;;;;;5073445;28;20193;-71
2022/06/02 06:34:39;;;;;;;13.90;10.43;;;25.60;73.70;;;;;;5083632;28;20208;-71
2022/06/02 06:37:13;;;;;;;12.73;9.73;;;25.70;72.10;;;;;;5083002;28;20207;-71
2022/06/02 06:40:10;;;;;;;11.83;9.93;;;25.90;71.30;;;;;;5071457;28;20607;-71
2022/06/02 06:42:50;;;;;;;13.90;10.27;;;25.90;69.60;;;;;;5080329;28;20194;-71
2022/06/02 06:45:31;;;;;;;15.97;10.10;;;25.90;70.10;;;;;;5081902;28;20216;-71
2022/06/02 06:48:09;;;;;;;18.97;10.30;;;26.00;70.20;;;;;;5088322;28;20209;-71
2022/06/02 06:51:09;;;;;;;16.80;11.23;;;26.10;70.50;;;;;;5084688;28;20297;-71
2022/06/02 06:54:01;;;;;;;15.67;10.90;;;26.20;69.40;;;;;;5025350;28;20241;-71
2022/06/02 06:56:47;;;;;;;18.33;11.77;;;26.20;69.60;;;;;;5068866;28;20205;-71
2022/06/02 06:59:29;;;;;;;12.10;10.87;;;26.30;69.30;;;;;;5075680;28;20628;-71
2022/06/02 07:02:12;;;;;;;17.07;10.77;;;26.50;68.40;;;;;;5084306;28;20235;-71
2022/06/02 07:05:20;;;;;;;16.43;12.30;;;26.60;68.80;;;;;;5089805;28;20199;-71
2022/06/02 07:08:03;;;;;;;15.20;11.43;;;26.80;67.40;;;;;;4966916;28;20227;-71
2022/06/02 07:10:56;;;;;;;14.83;11.80;;;26.90;66.70;;;;;;4970749;28;20240;-71
2022/06/02 07:13:50;;;;;;;14.03;12.40;;;26.90;67.40;;;;;;5064441;28;20823;-71
2022/06/02 07:16:26;;;;;;;14.93;13.33;;;27.00;67.20;;;;;;5087024;28;20197;-71
2022/06/02 07:19:17;;;;;;;16.37;11.90;;;27.20;66.60;;;;;;5087715;28;20216;-71
2022/06/02 07:21:53;;;;;;;16.17;12.87;;;27.30;66.90;;;;;;5075085;28;20201;-71
2022/06/02 07:24:50;;;;;;;18.60;13.17;;;27.40;66.30;;;;;;5082898;28;20212;-71
2022/06/02 07:27:32;;;;;;;15.93;14.30;;;27.50;65.50;;;;;;5088857;28;20288;-71
2022/06/02 07:30:07;;;;;;;15.73;14.07;;;27.70;64.30;;;;;;5082006;28;20232;-71
2022/06/02 07:32:49;;;;;;;19.20;14.77;;;27.70;63.40;;;;;;5066175;28;20273;-71
2022/06/02 07:35:39;;;;;;;15.87;13.43;;;27.70;64.10;;;;;;5074995;28;20289;-71
2022/06/02 07:38:19;;;;;;;18.43;14.33;;;27.80;64.50;;;;;;5058450;28;20215;-71
2022/06/02 07:40:49;;;;;;;16.67;14.83;;;27.90;64.20;;;;;;5065961;28;20504;-71
2022/06/02 07:44:24;;;;;;;17.60;15.63;;;28.10;63.80;;;;;;5087177;28;20205;-71
2022/06/02 07:47:10;;;;;;;15.53;13.87;;;28.30;63.40;;;;;;5008359;28;20811;-71
2022/06/02 07:50:00;;;;;;;16.17;14.47;;;28.40;63.10;;;;;;5080185;28;20210;-71
2022/06/02 07:53:05;;;;;;;20.37;14.67;;;28.60;63.50;;;;;;5057214;28;20229;-71
2022/06/02 07:55:57;;;;;;;19.03;15.63;;;28.80;62.90;;;;;;5087422;28;20297;-71
2022/06/02 07:58:29;;;;;;;18.90;16.77;;;28.90;61.90;;;;;;5073765;28;20211;-71
2022/06/02 08:01:11;;;;;;;20.47;17.27;;;29.00;62.20;;;;;;5086710;28;20544;-71
2022/06/02 08:04:00;;;;;;;19.93;17.87;;;29.10;62.20;;;;;;5084867;28;20210;-71
2022/06/02 08:06:46;;;;;;;19.80;17.73;;;29.20;61.10;;;;;;5090595;28;20225;-71
2022/06/02 08:09:38;;;;;;;19.57;17.77;;;29.30;61.40;;;;;;5085138;28;20625;-71
2022/06/02 08:12:18;;;;;;;25.27;19.87;;;29.40;61.10;;;;;;5083203;28;20483;-71
2022/06/02 08:14:57;;;;;;;22.67;19.43;;;29.50;59.00;;;;;;5073584;28;20317;-71
2022/06/02 08:17:45;;;;;;;20.13;18.27;;;29.60;59.50;;;;;;5074855;28;20561;-71
2022/06/02 08:20:37;;;;;;;21.40;19.33;;;29.60;60.00;;;;;;5062672;28;20676;-71
2022/06/02 08:23:25;;;;;;;24.63;18.60;;;29.70;59.00;;;;;;5084870;28;20198;-71
2022/06/02 08:26:22;;;;;;;21.00;18.60;;;29.80;59.50;;;;;;5084054;28;20235;-71
2022/06/02 08:29:29;;;;;;;25.53;19.33;;;29.90;60.00;;;;;;5057031;28;20206;-71
2022/06/02 08:32:10;;;;;;;21.97;19.67;;;30.00;60.00;;;;;;4994533;28;20213;-71
2022/06/02 08:34:49;;;;;;;25.37;19.97;;;30.00;59.80;;;;;;5070605;28;20224;-71
2022/06/02 08:37:30;;;;;;;21.77;19.47;;;30.10;59.10;;;;;;5070390;28;20219;-71
2022/06/02 08:40:49;;;;;;;21.57;19.27;;;30.20;58.70;;;;;;5084720;28;20806;-71
2022/06/02 08:43:38;;;;;;;21.77;18.63;;;30.30;58.70;;;;;;5064371;28;20215;-71
2022/06/02 08:46:16;;;;;;;21.23;18.80;;;30.40;59.00;;;;;;5084052;28;20210;-71
2022/06/02 08:49:12;;;;;;;21.20;19.00;;;30.50;58.50;;;;;;5068811;28;20205;-71
2022/06/02 08:51:58;;;;;;;25.20;22.13;;;30.60;58.40;;;;;;5081982;28;20206;-71
2022/06/02 08:54:59;;;;;;;24.43;21.83;;;30.70;55.60;;;;;;5080026;28;20237;-71
2022/06/02 08:58:04;;;;;;;25.47;21.87;;;30.70;55.80;;;;;;5061231;28;20219;-71
2022/06/02 09:01:01;;;;;;;26.67;23.80;;;30.60;55.90;;;;;;5049430;28;20206;-71
2022/06/02 09:04:19;;;;;;;23.50;21.20;;;30.60;55.20;;;;;;5066431;28;20206;-71
2022/06/02 09:06:58;;;;;;;28.37;22.03;;;30.50;56.60;;;;;;5064939;28;20205;-71
2022/06/02 09:09:29;;;;;;;23.63;20.30;;;30.50;57.30;;;;;;5063907;28;20555;-71
2022/06/02 09:12:11;;;;;;;23.53;21.07;;;30.60;57.30;;;;;;5066889;28;20729;-71
2022/06/02 09:14:56;;;;;;;24.30;20.47;;;30.60;55.70;;;;;;5067830;28;20218;-71
2022/06/02 09:17:56;;;;;;;24.00;21.20;;;30.70;56.10;;;;;;5054783;28;20202;-71
2022/06/02 09:21:12;;;;;;;23.57;19.30;;;30.80;55.80;;;;;;5060295;28;20241;-71
2022/06/02 09:23:47;;;;;;;23.97;20.17;;;31.00;57.00;;;;;;5036357;28;20225;-71
2022/06/02 09:26:36;;;;;;;21.83;19.53;;;31.10;56.70;;;;;;5065839;28;20565;-71
2022/06/02 09:29:07;;;;;;;20.73;18.67;;;31.20;55.90;;;;;;5060647;28;20198;-71
2022/06/02 09:31:52;;;;;;;44.97;40.47;;;31.40;55.00;;;;;;5062180;28;20190;-71
2022/06/02 09:34:42;;;;;;;1999.90;990.07;;;31.40;53.80;;;;;;5043948;28;20210;-71
2022/06/02 09:37:26;;;;;;;33.83;30.60;;;31.60;53.20;;;;;;5051002;28;20831;-71
2022/06/02 09:40:06;;;;;;;22.87;19.10;;;31.60;53.30;;;;;;5063597;28;20245;-71
2022/06/02 09:42:45;;;;;;;22.73;20.33;;;31.60;53.80;;;;;;5052323;28;20202;-72
2022/06/02 09:45:49;;;;;;;22.77;19.50;;;31.70;53.40;;;;;;5048096;28;20605;-72
2022/06/02 09:48:39;;;;;;;22.73;20.33;;;31.80;53.40;;;;;;5063577;28;20204;-72
2022/06/02 09:51:29;;;;;;;24.07;21.30;;;31.80;51.60;;;;;;5044601;28;20213;-72
2022/06/02 09:54:15;;;;;;;23.60;21.13;;;31.60;51.80;;;;;;5058608;28;20723;-72
2022/06/02 09:56:54;;;;;;;22.47;20.10;;;31.60;51.90;;;;;;5077463;28;20254;-72
2022/06/02 09:59:41;;;;;;;21.37;18.27;;;31.40;51.10;;;;;;5066462;28;20235;-72
2022/06/02 10:02:40;;;;;;;20.07;16.73;;;31.50;52.30;;;;;;5070866;28;20400;-72
2022/06/02 10:05:39;;;;;;;18.30;16.47;;;31.50;52.80;;;;;;5090287;28;20197;-72
2022/06/02 10:08:45;;;;;;;21.27;19.00;;;31.70;52.60;;;;;;5038923;28;20314;-72
2022/06/02 10:11:29;;;;;;;19.80;17.77;;;31.80;52.70;;;;;;5083472;28;20231;-72
2022/06/02 10:14:10;;;;;;;19.17;17.23;;;31.80;53.10;;;;;;5085022;28;20255;-72
2022/06/02 10:17:05;;;;;;;23.07;19.27;;;31.90;53.00;;;;;;5079906;28;20239;-72
2022/06/02 10:19:50;;;;;;;24.43;17.83;;;32.00;52.50;;;;;;5081995;28;20519;-72
2022/06/02 10:22:35;;;;;;;23.73;18.93;;;32.10;52.50;;;;;;5085730;28;20204;-72
2022/06/02 10:25:38;;;;;;;21.90;17.87;;;32.20;52.40;;;;;;5085929;28;20292;-72
2022/06/02 10:28:20;;;;;;;18.40;16.60;;;32.10;50.70;;;;;;5068042;28;20281;-72
2022/06/02 10:30:53;;;;;;;19.63;17.13;;;31.90;50.60;;;;;;5075715;28;20247;-72
2022/06/02 10:33:50;;;;;;;20.13;17.97;;;31.90;52.30;;;;;;5075372;28;20315;-72
2022/06/02 10:36:39;;;;;;;15.87;14.37;;;32.00;51.10;;;;;;5087286;28;20229;-73
2022/06/02 10:39:40;;;;;;;20.43;18.30;;;31.90;52.20;;;;;;5074860;28;20214;-72
2022/06/02 10:42:31;;;;;;;20.03;14.90;;;31.80;51.80;;;;;;5092078;28;20203;-72
2022/06/02 10:45:04;;;;;;;20.13;17.93;;;31.80;51.90;;;;;;5063980;28;20587;-72
2022/06/02 10:47:42;;;;;;;18.87;16.97;;;31.90;52.10;;;;;;5085834;28;20225;-72
2022/06/02 10:50:25;;;;;;;20.20;17.67;;;31.90;52.40;;;;;;5081865;28;20197;-72
2022/06/02 10:53:20;;;;;;;19.23;15.63;;;32.00;52.50;;;;;;5086826;28;20660;-72
2022/06/02 10:55:51;;;;;;;18.30;13.50;;;32.10;51.90;;;;;;5085645;28;20276;-73
2022/06/02 10:58:54;;;;;;;13.87;11.30;;;32.20;52.70;;;;;;5092847;28;20482;-72
2022/06/02 11:01:45;;;;;;;13.90;12.07;;;32.40;53.10;;;;;;5090871;28;20629;-72
2022/06/02 11:04:37;;;;;;;17.90;12.63;;;32.60;51.90;;;;;;5066773;28;20511;-73
2022/06/02 11:07:42;;;;;;;13.33;11.17;;;32.80;52.00;;;;;;5081304;28;20209;-72
2022/06/02 11:10:22;;;;;;;13.20;11.77;;;32.90;52.20;;;;;;5070716;28;20202;-72
2022/06/02 11:13:27;;;;;;;15.00;10.93;;;33.10;52.30;;;;;;5078749;28;20235;-72
2022/06/02 11:16:27;;;;;;;9.80;8.67;;;33.30;51.70;;;;;;5073911;28;20240;-73
2022/06/02 11:19:13;;;;;;;17.20;13.80;;;33.30;50.10;;;;;;5068312;28;20216;-73
2022/06/02 11:21:56;;;;;;;15.17;13.43;;;33.40;47.70;;;;;;5068507;28;20209;-73
2022/06/02 11:24:29;;;;;;;14.53;11.50;;;33.10;47.70;;;;;;5072044;28;20201;-73
2022/06/02 11:27:18;;;;;;;21.63;11.33;;;32.80;48.10;;;;;;5069016;28;20216;-73
2022/06/02 11:30:12;;;;;;;15.83;9.77;;;32.70;48.90;;;;;;5084137;28;20229;-73
2022/06/02 11:33:16;;;;;;;12.03;9.30;;;32.60;49.80;;;;;;5077170;28;20241;-77
2022/06/02 11:35:56;;;;;;;10.90;9.90;;;32.50;49.30;;;;;;5087665;28;20209;-76
2022/06/02 11:39:02;;;;;;;10.37;8.57;;;32.50;49.60;;;;;;5083326;28;20220;-77
2022/06/02 11:42:06;;;;;;;15.57;10.07;;;32.60;50.10;;;;;;5079764;28;20224;-77
2022/06/02 11:44:58;;;;;;;10.83;8.80;;;32.60;50.70;;;;;;5067092;28;20212;-77
2022/06/02 11:47:31;;;;;;;9.97;8.93;;;32.70;49.40;;;;;;5066868;28;20300;-77
2022/06/02 11:50:01;;;;;;;14.13;9.10;;;32.70;48.50;;;;;;5078096;28;20201;-77
2022/06/02 11:53:13;;;;;;;11.70;9.57;;;32.60;48.30;;;;;;5063688;28;20205;-77
2022/06/02 11:56:05;;;;;;;11.67;7.50;;;32.80;49.70;;;;;;5056516;28;20294;-76
2022/06/02 11:58:52;;;;;;;11.57;8.40;;;32.90;50.20;;;;;;5072107;28;20296;-77
2022/06/02 12:01:21;;;;;;;13.03;8.93;;;33.10;49.80;;;;;;5086701;28;20212;-77
2022/06/02 12:04:13;;;;;;;13.23;8.47;;;33.20;49.70;;;;;;5077243;28;20226;-77
2022/06/02 12:06:43;;;;;;;9.60;8.50;;;33.40;49.50;;;;;;5086858;28;20680;-77
2022/06/02 12:09:53;;;;;;;12.33;10.27;;;33.50;48.90;;;;;;5072726;28;20221;-77
2022/06/02 12:12:20;;;;;;;13.53;9.00;;;33.60;47.30;;;;;;5072603;28;20201;-77
2022/06/02 12:15:06;;;;;;;11.53;9.97;;;33.60;48.10;;;;;;5087782;28;20202;-77
2022/06/02 12:18:10;;;;;;;11.20;9.60;;;33.40;47.70;;;;;;5066896;28;20271;-77
2022/06/02 12:21:01;;;;;;;10.13;8.80;;;33.40;48.40;;;;;;5071274;28;20209;-78
2022/06/02 12:23:47;;;;;;;10.33;8.20;;;33.30;48.70;;;;;;5063380;28;20201;-77
2022/06/02 12:26:42;;;;;;;12.37;9.37;;;33.40;49.90;;;;;;5075283;28;20220;-77
2022/06/02 12:29:24;;;;;;;13.23;11.30;;;33.40;48.70;;;;;;5083356;28;20753;-77
2022/06/02 12:32:19;;;;;;;15.87;10.10;;;33.30;48.90;;;;;;5084659;28;20280;-77
2022/06/02 12:34:59;;;;;;;17.23;9.97;;;33.20;49.00;;;;;;5085158;28;20201;-77
2022/06/02 12:37:41;;;;;;;12.80;9.53;;;33.30;49.30;;;;;;5055874;28;20596;-77
2022/06/02 12:40:30;;;;;;;12.97;11.27;;;33.30;48.30;;;;;;5071515;28;20706;-77
2022/06/02 12:43:22;;;;;;;12.00;10.63;;;33.20;47.90;;;;;;5079543;28;20279;-77
2022/06/02 12:46:27;;;;;;;11.43;9.73;;;33.10;46.70;;;;;;5079186;28;20560;-77
2022/06/02 12:49:25;;;;;;;11.67;10.40;;;32.90;47.70;;;;;;5072053;28;20221;-77
2022/06/02 12:51:57;;;;;;;13.37;10.23;;;32.80;48.70;;;;;;5085205;28;20212;-77
2022/06/02 12:54:24;;;;;;;14.17;8.50;;;32.70;49.00;;;;;;5069248;28;20248;-77
2022/06/02 12:57:15;;;;;;;8.30;7.23;;;32.70;48.10;;;;;;5057242;28;20210;-75
2022/06/02 13:00:07;;;;;;;12.90;8.33;;;32.70;48.70;;;;;;5091036;28;20197;-74
2022/06/02 13:02:50;;;;;;;9.50;8.33;;;32.80;47.90;;;;;;5097599;28;20706;-75
2022/06/02 13:05:56;;;;;;;9.73;8.20;;;32.80;48.30;;;;;;5079915;28;20297;-75
2022/06/02 13:08:48;;;;;;;10.73;8.03;;;32.80;48.70;;;;;;4995273;28;20832;-78
2022/06/02 13:11:40;;;;;;;9.40;7.80;;;32.90;48.40;;;;;;5073173;28;20247;-78
2022/06/02 13:14:21;;;;;;;10.40;8.17;;;33.00;47.90;;;;;;5052771;28;20283;-78
2022/06/02 13:17:04;;;;;;;8.70;7.90;;;33.00;47.30;;;;;;5063779;28;20197;-78
2022/06/02 13:20:03;;;;;;;12.13;8.87;;;32.90;47.40;;;;;;5067279;28;20197;-78
2022/06/02 13:22:36;;;;;;;14.47;10.00;;;33.00;49.70;;;;;;5088705;28;20532;-78
2022/06/02 13:25:36;;;;;;;15.23;11.27;;;33.00;49.80;;;;;;5075923;28;20201;-78
2022/06/02 13:28:13;;;;;;;12.93;11.63;;;32.90;49.30;;;;;;5075838;28;20232;-78
2022/06/02 13:31:10;;;;;;;13.40;10.70;;;32.70;48.70;;;;;;5072789;28;20291;-78
2022/06/02 13:34:16;;;;;;;12.60;9.47;;;32.60;50.30;;;;;;5075119;28;20237;-78
2022/06/02 13:37:01;;;;;;;12.07;10.87;;;32.50;51.00;;;;;;5085797;28;20267;-78
2022/06/02 13:39:42;;;;;;;14.87;10.67;;;32.50;50.40;;;;;;5080622;28;20535;-78
2022/06/02 13:42:45;;;;;;;12.90;7.93;;;32.50;50.80;;;;;;5085854;28;20287;-78
2022/06/02 13:45:40;;;;;;;12.47;8.37;;;32.60;51.00;;;;;;5071953;28;20288;-78
2022/06/02 13:48:17;;;;;;;10.40;7.73;;;32.70;49.60;;;;;;5082633;28;20289;-78
2022/06/02 13:51:13;;;;;;;9.70;7.50;;;32.70;49.20;;;;;;5069513;28;20217;-78
2022/06/02 14:00:10;;;;;;;13.20;6.80;;;32.90;50.30;;;;;;5088293;28;20201;-78
2022/06/02 14:03:01;;;;;;;14.07;8.00;;;33.00;50.40;;;;;;5089993;28;20192;-78
2022/06/02 14:05:53;;;;;;;11.67;8.17;;;33.00;50.50;;;;;;5069151;28;20204;-78
2022/06/02 14:08:24;;;;;;;8.93;7.00;;;33.00;48.80;;;;;;5075976;28;20217;-78
2022/06/02 14:11:10;;;;;;;9.50;6.73;;;32.90;49.40;;;;;;5080913;28;20190;-78
2022/06/02 14:13:52;;;;;;;7.80;6.50;;;32.90;48.60;;;;;;5088576;28;20193;-78
2022/06/02 14:16:50;;;;;;;8.83;6.70;;;32.90;46.90;;;;;;5074870;28;20198;-78
2022/06/02 14:19:38;;;;;;;8.47;6.03;;;32.80;48.60;;;;;;5068062;28;20228;-78
2022/06/02 14:22:34;;;;;;;11.60;7.27;;;32.70;49.00;;;;;;5062707;28;20204;-78